Time;durP1;ratioP1;P1;durP2;ratioP2;P2;SDS_P1;SDS_P2;PMS_P1;PMS_P2;Temp;Humidity;BMP_temperature;BMP_pressure;BME280_temperature;BME280_humidity;BME280_pressure;Samples;Min_cycle;Max_cycle;Signal;HPM_P1;HPM_P2
2022/11/19 00:00:42;;;;;;;10.40;7.13;;;;;;;9.84;55.66;98895.63;10497011;28;20231;-69
2022/11/19 00:05:48;;;;;;;13.00;8.33;;;;;;;12.15;51.50;98789.22;10490323;28;20223;-67
2022/11/19 00:10:50;;;;;;;9.33;6.90;;;;;;;9.24;56.47;98841.16;10489532;28;20250;-67
2022/11/19 00:15:51;;;;;;;12.30;8.27;;;;;;;11.57;52.58;98849.16;10495635;28;20256;-69
2022/11/19 00:20:55;;;;;;;12.57;8.20;;;;;;;11.95;51.73;98856.41;10496856;28;20235;-67
2022/11/19 00:26:06;;;;;;;10.63;7.90;;;;;;;11.46;52.05;98906.09;10496909;28;20854;-68
2022/11/19 00:31:10;;;;;;;13.80;8.13;;;;;;;11.29;52.05;98911.09;10498921;28;20215;-68
2022/11/19 00:36:14;;;;;;;9.60;7.93;;;;;;;11.51;52.20;98884.03;10497271;28;20213;-67
2022/11/19 00:41:15;;;;;;;9.77;7.47;;;;;;;11.38;52.90;98892.94;10499817;28;20226;-70
2022/11/19 00:46:19;;;;;;;9.13;7.83;;;;;;;12.09;51.25;98867.06;10496750;28;20222;-68
2022/11/19 00:51:22;;;;;;;12.07;8.37;;;;;;;11.85;52.33;98895.47;10499654;28;20947;-68
2022/11/19 00:56:26;;;;;;;11.23;8.27;;;;;;;11.62;51.27;98931.59;10494946;28;20195;-68
2022/11/19 01:01:28;;;;;;;12.63;8.20;;;;;;;11.66;51.58;98951.63;10494992;28;20613;-68
2022/11/19 01:06:30;;;;;;;9.17;7.87;;;;;;;13.75;47.85;98875.38;10489582;28;20637;-70
2022/11/19 01:11:34;;;;;;;10.43;8.37;;;;;;;10.93;53.23;98971.28;10489301;28;20257;-70
2022/11/19 01:16:39;;;;;;;11.77;8.70;;;;;;;10.51;53.32;98965.25;10510291;28;20210;-68
2022/11/19 01:21:41;;;;;;;15.10;8.13;;;;;;;10.88;54.71;98949.66;10498095;28;20245;-71
2022/11/19 01:26:42;;;;;;;12.20;8.20;;;;;;;11.41;54.02;98890.66;10495399;28;20229;-68
2022/11/19 01:31:46;;;;;;;13.13;8.63;;;;;;;12.77;50.10;98835.97;10492024;28;20223;-68
2022/11/19 01:36:48;;;;;;;12.37;8.50;;;;;;;11.50;52.14;98950.19;10495493;28;20256;-69
2022/11/19 01:41:50;;;;;;;12.77;8.87;;;;;;;11.35;52.15;98954.97;10496428;28;20223;-69
2022/11/19 01:46:51;;;;;;;12.60;9.00;;;;;;;13.00;49.73;98880.97;10492549;28;20299;-68
2022/11/19 01:51:59;;;;;;;9.70;8.30;;;;;;;13.28;49.23;98864.38;10493442;28;20706;-68
2022/11/19 01:57:07;;;;;;;13.30;8.27;;;;;;;13.01;48.94;98928.25;10489230;28;20203;-68
2022/11/19 02:02:09;;;;;;;11.43;9.30;;;;;;;11.84;50.87;98987.63;10495641;28;20300;-70
2022/11/19 02:07:12;;;;;;;12.43;9.50;;;;;;;11.43;51.59;98995.75;10487046;28;20245;-68
2022/11/19 02:12:34;;;;;;;12.07;8.57;;;;;;;13.49;48.55;98873.81;10488839;28;20989;-68
2022/11/19 02:17:48;;;;;;;12.57;8.97;;;;;;;11.58;51.94;98997.38;10489839;28;20666;-69
2022/11/19 02:23:08;;;;;;;9.17;7.30;;;;;;;10.87;53.58;98966.78;10492998;28;20238;-67
2022/11/19 02:28:52;;;;;;;9.20;7.60;;;;;;;11.91;52.02;98878.50;10483289;28;20383;-68
2022/11/19 02:34:04;;;;;;;10.10;6.90;;;;;;;12.20;51.52;98877.09;10491277;28;20991;-68
2022/11/19 02:39:25;;;;;;;11.13;7.63;;;;;;;11.13;52.51;98960.56;10476658;28;20253;-68
2022/11/19 02:44:58;;;;;;;11.40;7.07;;;;;;;11.64;52.36;98921.50;10481212;28;20230;-68
2022/11/19 02:50:10;;;;;;;9.90;6.67;;;;;;;10.69;54.22;98956.66;10491351;28;20236;-68
2022/11/19 02:55:17;;;;;;;10.33;6.60;;;;;;;11.33;53.34;98919.53;10486245;28;20208;-69
2022/11/19 03:05:46;;;;;;;9.50;7.30;;;;;;;11.32;52.65;98936.63;10490398;28;20214;-67
2022/11/19 03:11:12;;;;;;;8.63;6.10;;;;;;;11.19;53.50;98956.25;10484807;28;20224;-68
2022/11/19 03:16:40;;;;;;;9.70;6.77;;;;;;;11.25;53.11;98955.38;10490024;28;20221;-68
2022/11/19 03:21:49;;;;;;;7.70;6.20;;;;;;;10.89;53.44;98994.97;10494870;28;20732;-67
2022/11/19 03:27:07;;;;;;;9.77;7.37;;;;;;;11.39;52.60;98951.66;10493034;28;20301;-70
2022/11/19 03:32:15;;;;;;;11.43;7.10;;;;;;;12.14;51.70;98897.53;10489149;28;20226;-68
2022/11/19 03:37:21;;;;;;;9.30;5.93;;;;;;;11.17;53.43;98977.03;10489171;28;20191;-68
2022/11/19 03:42:25;;;;;;;9.43;6.60;;;;;;;10.40;54.18;98973.91;10490786;28;20901;-69
2022/11/19 03:47:34;;;;;;;9.43;5.97;;;;;;;11.37;53.21;98943.03;10497432;28;20229;-68
2022/11/19 03:52:36;;;;;;;10.23;6.63;;;;;;;11.56;52.33;98929.78;10501763;28;20226;-67
2022/11/19 03:57:38;;;;;;;7.87;6.17;;;;;;;11.68;51.82;98922.75;10496823;28;20196;-68
2022/11/19 04:02:40;;;;;;;8.33;6.77;;;;;;;10.99;53.10;98978.50;10501566;28;20237;-70
2022/11/19 04:07:41;;;;;;;12.23;7.10;;;;;;;10.68;53.86;98990.63;10504063;28;20230;-68
2022/11/19 04:12:43;;;;;;;8.63;6.93;;;;;;;11.56;52.14;98937.81;10493413;28;20235;-68
2022/11/19 04:17:45;;;;;;;10.50;6.40;;;;;;;11.77;51.54;98908.06;10500277;28;20943;-67
2022/11/19 04:22:50;;;;;;;11.70;7.33;;;;;;;12.28;51.13;98892.06;10499393;28;20944;-68
2022/11/19 04:27:51;;;;;;;9.03;7.10;;;;;;;11.40;51.84;98969.38;10492719;28;20222;-70
2022/11/19 04:32:53;;;;;;;10.27;6.53;;;;;;;10.70;53.11;98975.19;10491590;28;20235;-70
2022/11/19 04:37:55;;;;;;;7.60;6.47;;;;;;;10.43;54.03;98968.16;10506199;28;20251;-69
2022/11/19 04:42:56;;;;;;;8.13;6.00;;;;;;;10.46;53.37;98973.94;10498253;28;20369;-67
2022/11/19 04:47:58;;;;;;;7.77;6.07;;;;;;;11.49;52.00;98961.09;10491838;28;20226;-67
2022/11/19 04:53:00;;;;;;;7.20;5.77;;;;;;;11.17;52.45;98985.06;10489594;28;20305;-68
2022/11/19 04:58:01;;;;;;;8.63;6.20;;;;;;;10.94;52.92;98988.19;10489273;28;20210;-67
2022/11/19 05:03:03;;;;;;;8.70;6.50;;;;;;;10.87;52.69;98989.00;10489224;28;20234;-70
2022/11/19 05:08:05;;;;;;;10.20;7.00;;;;;;;11.56;52.10;98961.94;10481624;28;20238;-67
2022/11/19 05:13:07;;;;;;;10.33;6.80;;;;;;;10.95;53.09;99006.72;10491999;28;20276;-68
2022/11/19 05:18:08;;;;;;;7.63;6.00;;;;;;;11.07;53.75;98991.69;10492007;28;20199;-68
2022/11/19 05:23:10;;;;;;;7.73;4.93;;;;;;;9.64;55.18;98956.97;10487333;28;20217;-68
2022/11/19 05:28:12;;;;;;;8.47;6.23;;;;;;;10.00;55.66;98987.97;10488114;28;20279;-70
2022/11/19 05:33:13;;;;;;;7.53;6.67;;;;;;;9.31;57.20;98930.91;10486729;28;20481;-68
2022/11/19 05:38:15;;;;;;;9.90;6.37;;;;;;;11.04;53.75;98951.94;10492036;28;20201;-68
2022/11/19 05:43:17;;;;;;;11.07;7.30;;;;;;;9.84;55.59;98983.81;10490530;28;20223;-67
2022/11/19 05:48:19;;;;;;;9.00;7.20;;;;;;;10.95;53.93;98944.31;10493107;28;20228;-67
2022/11/19 05:53:20;;;;;;;8.23;7.37;;;;;;;10.41;53.60;98997.78;10486397;28;20364;-67
2022/11/19 05:58:22;;;;;;;10.20;7.57;;;;;;;11.32;52.99;98976.81;10488971;28;20206;-67
2022/11/19 06:03:24;;;;;;;9.57;6.80;;;;;;;11.26;53.39;98946.34;10493947;28;20234;-70
2022/11/19 06:08:26;;;;;;;9.80;6.87;;;;;;;11.11;52.71;99001.97;10490255;28;20233;-67
2022/11/19 06:13:27;;;;;;;9.90;7.37;;;;;;;11.40;52.14;98990.78;10496725;28;20300;-69
2022/11/19 06:18:29;;;;;;;8.80;6.90;;;;;;;9.53;55.60;98969.06;10493135;28;20207;-69
2022/11/19 06:23:31;;;;;;;8.87;6.47;;;;;;;10.01;55.45;99019.03;10489087;28;20227;-68
2022/11/19 06:28:33;;;;;;;9.80;7.17;;;;;;;9.84;55.04;99012.38;10489897;28;20230;-68
2022/11/19 06:33:34;;;;;;;10.83;8.03;;;;;;;11.17;53.22;98956.47;10491825;28;20235;-68
2022/11/19 06:38:36;;;;;;;8.37;7.57;;;;;;;10.42;55.25;99022.66;10487288;28;20206;-70
2022/11/19 06:43:37;;;;;;;10.00;7.80;;;;;;;10.52;54.51;99013.22;10490846;28;20218;-69
2022/11/19 06:48:39;;;;;;;10.33;8.13;;;;;;;11.24;53.98;98951.91;10484084;28;20469;-69
2022/11/19 06:53:41;;;;;;;11.47;8.70;;;;;;;10.92;53.96;99015.16;10482020;28;20222;-68
2022/11/19 06:58:43;;;;;;;9.53;8.00;;;;;;;11.01;53.41;99007.75;10488757;28;20209;-69
2022/11/19 07:03:44;;;;;;;11.80;8.40;;;;;;;11.15;52.68;99004.00;10487778;28;20242;-69
2022/11/19 07:08:46;;;;;;;12.37;7.63;;;;;;;11.80;51.99;98988.03;10489832;28;20920;-69
2022/11/19 07:13:58;;;;;;;9.53;7.63;;;;;;;11.13;53.33;99013.31;10493451;28;20416;-68
2022/11/19 07:19:03;;;;;;;10.27;7.47;;;;;;;11.06;52.40;99048.09;10492233;28;20198;-68
2022/11/19 07:24:07;;;;;;;12.00;7.07;;;;;;;10.60;53.44;99075.59;10488594;28;20231;-68
2022/11/19 07:29:12;;;;;;;14.00;8.53;;;;;;;10.46;53.00;99075.56;10495897;28;20226;-69
2022/11/19 07:34:13;;;;;;;12.33;8.90;;;;;;;10.52;52.94;99093.47;10494705;28;20714;-69
2022/11/19 07:39:15;;;;;;;10.23;7.37;;;;;;;10.60;53.27;99080.97;10500143;28;20222;-70
2022/11/19 07:44:18;;;;;;;8.03;5.80;;;;;;;10.00;54.20;99054.78;10500028;28;20234;-68
2022/11/19 07:49:19;;;;;;;12.47;7.40;;;;;;;10.61;53.67;99104.81;10491787;28;20203;-69
2022/11/19 07:54:23;;;;;;;7.83;6.07;;;;;;;10.89;53.26;99085.16;10498375;28;20250;-69
2022/11/19 07:59:25;;;;;;;10.80;6.00;;;;;;;10.51;53.52;99107.88;10508650;28;20214;-68
2022/11/19 08:04:28;;;;;;;9.13;5.60;;;;;;;11.94;51.11;99020.16;10505742;28;20230;-68
2022/11/19 08:09:29;;;;;;;6.37;5.47;;;;;;;11.37;52.24;99084.16;10502518;28;20202;-69
2022/11/19 08:14:31;;;;;;;7.10;4.63;;;;;;;11.17;52.39;99092.19;10493655;28;20283;-69
2022/11/19 08:19:33;;;;;;;8.23;5.20;;;;;;;11.90;51.02;99053.81;10496555;28;20748;-69
2022/11/19 08:24:34;;;;;;;6.77;5.20;;;;;;;11.43;52.87;99089.50;10494449;28;20710;-69
2022/11/19 08:29:36;;;;;;;12.77;7.47;;;;;;;11.32;52.87;99073.22;10501337;28;20207;-69
2022/11/19 08:34:37;;;;;;;7.53;5.20;;;;;;;10.85;53.88;99108.84;10483449;28;20965;-70
2022/11/19 08:39:39;;;;;;;10.23;4.87;;;;;;;10.61;54.89;99104.00;10498017;28;20951;-68
2022/11/19 08:44:41;;;;;;;6.17;5.30;;;;;;;10.48;54.22;99123.50;10498825;28;20225;-70
2022/11/19 08:49:43;;;;;;;9.07;4.90;;;;;;;11.12;53.37;99078.59;10495410;28;20210;-67
2022/11/19 08:54:44;;;;;;;6.07;4.40;;;;;;;10.58;54.82;99088.34;10491155;28;20213;-68
2022/11/19 08:59:46;;;;;;;8.27;5.10;;;;;;;11.20;52.85;99079.22;10501649;28;20743;-69
2022/11/19 09:04:48;;;;;;;6.87;4.50;;;;;;;9.40;56.10;99070.44;10499744;28;20255;-68
2022/11/19 09:09:49;;;;;;;8.50;6.00;;;;;;;9.56;55.95;99128.06;10500551;28;20256;-68
2022/11/19 09:14:51;;;;;;;9.63;6.00;;;;;;;12.49;51.17;99017.06;10497562;28;20257;-68
2022/11/19 09:19:53;;;;;;;8.70;5.77;;;;;;;10.89;53.26;99125.31;10499924;28;20226;-68
2022/11/19 09:24:54;;;;;;;8.37;5.83;;;;;;;11.35;52.44;99083.53;10510198;28;20275;-69
2022/11/19 09:29:56;;;;;;;6.87;5.03;;;;;;;10.66;53.45;99158.56;10492560;28;20224;-68
2022/11/19 09:34:58;;;;;;;8.27;6.13;;;;;;;11.06;52.81;99118.53;10506214;28;20209;-70
2022/11/19 09:40:00;;;;;;;9.00;5.00;;;;;;;11.17;52.50;99143.06;10506906;28;20225;-67
2022/11/19 09:45:07;;;;;;;6.53;5.27;;;;;;;11.75;52.01;99067.44;10502671;28;20238;-70
2022/11/19 09:50:17;;;;;;;6.60;4.90;;;;;;;10.45;53.24;99185.44;10506369;28;20893;-69
2022/11/19 09:55:32;;;;;;;6.87;4.10;;;;;;;11.73;51.41;99091.78;10501009;28;20212;-67
2022/11/19 10:00:33;;;;;;;4.77;3.80;;;;;;;10.07;53.18;99175.13;10514136;28;20266;-68
2022/11/19 10:05:47;;;;;;;7.53;3.90;;;;;;;11.12;50.87;99159.75;10495751;28;20840;-69
2022/11/19 10:11:07;;;;;;;5.40;4.07;;;;;;;11.60;50.79;99146.16;10500542;28;20218;-68
2022/11/19 10:16:29;;;;;;;7.50;4.70;;;;;;;11.56;50.80;99171.75;10505065;28;20198;-68
2022/11/19 10:21:56;;;;;;;6.53;4.90;;;;;;;10.84;51.67;99195.50;10495444;28;20226;-68
2022/11/19 10:27:02;;;;;;;8.70;5.63;;;;;;;11.37;51.49;99189.47;10500669;28;20316;-69
2022/11/19 10:32:16;;;;;;;19.03;5.90;;;;;;;11.70;51.61;99144.97;10497079;28;20312;-68
2022/11/19 10:37:21;;;;;;;8.30;5.10;;;;;;;10.70;52.68;99197.28;10505808;28;20201;-68
2022/11/19 10:42:31;;;;;;;7.53;5.37;;;;;;;10.86;52.24;99206.00;10494028;28;20226;-71
2022/11/19 10:47:40;;;;;;;6.80;4.83;;;;;;;12.26;50.11;99101.53;10502783;28;20256;-68
2022/11/19 10:52:46;;;;;;;6.67;4.73;;;;;;;11.11;51.55;99165.31;10500224;28;20229;-70
2022/11/19 10:57:51;;;;;;;8.40;5.73;;;;;;;11.90;51.38;99123.50;10504509;28;20852;-69
2022/11/19 11:06:11;;;;;;;6.03;4.97;;;;;;;8.86;58.16;99090.47;10572522;27;20894;-68
2022/11/19 11:17:03;;;;;;;6.87;5.10;;;;;;;8.93;57.25;99102.06;10562734;27;20197;-68
2022/11/19 11:22:04;;;;;;;5.80;4.17;;;;;;;9.30;56.69;99083.28;10564987;27;20214;-69
2022/11/19 11:27:32;;;;;;;6.13;3.87;;;;;;;8.36;56.85;99090.34;10579527;27;20205;-68
2022/11/19 11:32:34;;;;;;;7.90;3.80;;;;;;;9.71;55.67;99063.88;10569788;27;20315;-69
2022/11/19 11:37:35;;;;;;;6.67;3.80;;;;;;;9.13;55.49;99090.75;10561729;28;20455;-68
2022/11/19 11:42:37;;;;;;;7.27;3.93;;;;;;;9.27;54.18;99124.56;10570691;28;20247;-68
2022/11/19 11:47:39;;;;;;;7.80;4.33;;;;;;;10.48;53.66;99062.00;10568592;27;20860;-68
2022/11/19 11:52:45;;;;;;;6.50;4.37;;;;;;;9.46;54.68;99125.72;10568436;28;20749;-69
2022/11/19 11:57:58;;;;;;;7.00;4.27;;;;;;;9.47;54.36;99113.22;10574865;28;20900;-67
2022/11/19 12:03:15;;;;;;;5.90;4.17;;;;;;;10.77;52.77;99079.56;10557553;27;21112;-68
2022/11/19 12:08:39;;;;;;;6.30;3.83;;;;;;;9.34;54.60;99148.66;10562777;27;20197;-68
2022/11/19 12:14:00;;;;;;;4.43;3.50;;;;;;;9.89;52.60;99125.69;10556261;28;20709;-68
2022/11/19 12:19:23;;;;;;;4.03;3.60;;;;;;;10.45;52.40;99116.69;10540709;28;20198;-68
2022/11/19 12:24:34;;;;;;;5.00;3.50;;;;;;;10.88;52.22;99083.50;10537850;28;20225;-70
2022/11/19 12:29:45;;;;;;;5.57;4.10;;;;;;;10.99;51.71;99103.50;10535548;28;20264;-68
2022/11/19 12:35:07;;;;;;;4.73;3.90;;;;;;;9.98;52.75;99166.44;10535542;28;20209;-68
2022/11/19 12:40:20;;;;;;;7.93;5.07;;;;;;;10.39;52.43;99148.75;10546129;28;20231;-69
2022/11/19 12:45:50;;;;;;;5.43;3.90;;;;;;;10.61;51.44;99125.41;10537516;28;20229;-68
2022/11/19 12:51:14;;;;;;;6.23;4.00;;;;;;;8.95;53.82;99157.91;10527938;28;20230;-69
2022/11/19 12:56:41;;;;;;;11.20;8.27;;;;;;;10.10;52.09;99150.66;10532628;28;20211;-68
2022/11/19 13:01:49;;;;;;;6.40;5.17;;;;;;;9.73;53.27;99160.66;10539468;28;20908;-67
2022/11/19 13:07:01;;;;;;;6.03;4.23;;;;;;;10.69;52.11;99109.97;10531230;28;20746;-68
2022/11/19 13:12:07;;;;;;;5.60;4.53;;;;;;;10.55;51.89;99126.22;10530154;27;20275;-67
2022/11/19 13:17:25;;;;;;;8.30;5.33;;;;;;;10.23;52.18;99147.25;10534751;28;20752;-68
2022/11/19 13:22:36;;;;;;;51.33;38.70;;;;;;;10.79;51.35;99106.94;10544585;28;20238;-68
2022/11/19 13:27:38;;;;;;;43.63;26.87;;;;;;;10.77;51.40;99119.72;10547945;28;20210;-67
2022/11/19 13:32:39;;;;;;;13.53;9.90;;;;;;;11.60;50.71;99119.38;10532026;28;20222;-66
2022/11/19 13:38:03;;;;;;;9.13;5.47;;;;;;;11.21;51.15;99129.06;10536020;28;20206;-66
2022/11/19 13:48:43;;;;;;;9.03;5.50;;;;;;;10.94;50.98;99157.66;10534928;28;20208;-68
2022/11/19 13:53:45;;;;;;;8.30;5.30;;;;;;;11.12;50.80;99154.41;10543270;28;20305;-66
2022/11/19 13:58:53;;;;;;;8.30;5.53;;;;;;;11.01;50.91;99158.47;10539238;28;20209;-68
2022/11/19 14:04:13;;;;;;;6.13;4.00;;;;;;;10.73;51.16;99193.38;10522384;28;20792;-68
2022/11/19 14:09:21;;;;;;;8.10;4.80;;;;;;;11.68;50.23;99145.19;10534250;28;20209;-70
2022/11/19 14:31:03;;;;;;;8.63;5.80;;;;;;;12.15;48.99;99158.53;10529582;28;20232;-66
2022/11/19 14:36:16;;;;;;;7.83;4.37;;;;;;;10.31;50.69;99203.25;10537459;28;20205;-67
2022/11/19 14:41:41;;;;;;;6.83;4.67;;;;;;;11.13;50.21;99196.19;10531464;28;20228;-67
2022/11/19 14:46:48;;;;;;;5.53;4.60;;;;;;;11.86;48.94;99168.69;10524667;28;20202;-68
2022/11/19 14:51:53;;;;;;;8.00;4.70;;;;;;;11.63;49.32;99180.63;10522657;28;20222;-67
2022/11/19 14:57:04;;;;;;;6.97;6.00;;;;;;;9.95;53.20;99207.72;10527332;28;20284;-66
2022/11/19 15:02:23;;;;;;;8.40;7.37;;;;;;;9.97;53.17;99207.53;10525531;28;20784;-66
2022/11/19 15:07:38;;;;;;;9.83;7.00;;;;;;;10.32;51.76;99197.69;10535954;28;20845;-67
2022/11/19 15:12:43;;;;;;;8.13;7.10;;;;;;;8.02;54.26;99137.06;10526721;28;20593;-66
2022/11/19 15:18:06;;;;;;;10.23;7.17;;;;;;;10.81;50.30;99152.25;10531350;28;20707;-65
2022/11/19 15:23:30;;;;;;;6.70;5.80;;;;;;;8.80;53.43;99203.28;10529926;28;20937;-69
2022/11/19 15:28:37;;;;;;;7.53;6.67;;;;;;;7.94;54.01;99174.44;10532197;28;20231;-67
2022/11/19 15:33:52;;;;;;;9.37;6.80;;;;;;;8.59;52.60;99207.53;10529513;28;20223;-68
2022/11/19 15:39:17;;;;;;;9.10;6.07;;;;;;;10.00;50.75;99201.00;10530468;28;20203;-69
2022/11/19 15:44:25;;;;;;;7.07;5.97;;;;;;;9.11;52.25;99224.41;10532125;28;20302;-71
2022/11/19 15:49:33;;;;;;;7.63;6.63;;;;;;;8.15;53.48;99200.38;10550388;28;20205;-70
2022/11/19 15:54:36;;;;;;;8.10;7.30;;;;;;;7.52;54.42;99178.44;10553463;28;20818;-72
2022/11/19 15:59:39;;;;;;;9.37;7.60;;;;;;;8.87;52.73;99211.41;10547128;28;20773;-70
2022/11/19 16:04:40;;;;;;;10.13;8.20;;;;;;;8.58;52.08;99235.22;10543435;28;20233;-71
2022/11/19 16:09:42;;;;;;;13.00;8.80;;;;;;;9.81;50.19;99208.63;10534733;28;20215;-73
2022/11/19 16:20:19;;;;;;;7.33;6.10;;;;;;;9.85;48.81;99262.53;10538584;28;20221;-69
2022/11/19 16:25:23;;;;;;;11.50;8.73;;;;;;;10.32;48.25;99259.19;10538831;28;20233;-72
2022/11/19 16:30:28;;;;;;;8.60;7.67;;;;;;;10.69;48.27;99243.78;10534998;27;20387;-68
2022/11/19 16:35:31;;;;;;;9.97;8.17;;;;;;;9.81;49.54;99298.66;10541550;28;20202;-69
2022/11/19 16:42:15;;;;;;;12.90;10.00;;;;;;;11.21;46.69;99233.50;10537355;28;20241;-70
2022/11/19 16:45:56;;;;;;;10.70;7.80;;;;;;;11.05;46.37;99256.13;10535800;28;20237;-70
2022/11/19 16:51:35;;;;;;;5.70;5.07;;;;;;;8.91;50.43;99277.56;10455139;27;20239;-71
2022/11/19 16:56:43;;;;;;;5.93;4.60;;;;;;;8.95;50.49;99297.50;10398447;28;20204;-70
2022/11/19 17:01:54;;;;;;;5.47;4.97;;;;;;;10.54;47.81;99269.00;10403286;28;20232;-68
2022/11/19 17:06:57;;;;;;;16.83;10.90;;;;;;;10.28;48.05;99314.09;10389192;28;20289;-69
2022/11/19 17:12:17;;;;;;;10.73;8.07;;;;;;;9.62;49.17;99333.00;10390364;28;20225;-71
2022/11/19 17:17:36;;;;;;;5.23;4.73;;;;;;;10.33;48.43;99335.75;10392237;28;20230;-72
2022/11/19 17:22:41;;;;;;;5.60;5.10;;;;;;;9.45;49.74;99337.75;10399811;28;20830;-72
2022/11/19 17:27:42;;;;;;;6.00;5.40;;;;;;;8.60;51.07;99291.84;10396746;28;20228;-72
2022/11/19 17:32:47;;;;;;;6.93;5.07;;;;;;;9.96;49.01;99313.63;10397390;28;20224;-72
2022/11/19 17:37:48;;;;;;;6.70;6.00;;;;;;;7.38;52.15;99224.50;10387026;28;20200;-72
2022/11/19 17:48:20;;;;;;;6.63;5.67;;;;;;;9.87;48.47;99329.97;10396666;28;20217;-67
2022/11/19 17:53:22;;;;;;;8.83;6.63;;;;;;;8.62;50.75;99329.88;10398584;28;20740;-68
2022/11/19 17:58:24;;;;;;;11.07;9.73;;;;;;;7.90;51.89;99290.38;10406074;28;20228;-73
2022/11/19 18:03:26;;;;;;;11.53;10.33;;;;;;;9.27;50.71;99315.97;10409729;28;20234;-72
2022/11/19 18:08:27;;;;;;;13.90;10.60;;;;;;;8.11;52.19;99303.00;10387926;28;20219;-72
2022/11/19 18:13:31;;;;;;;13.57;11.10;;;;;;;8.80;50.60;99337.50;10421223;28;20231;-72
2022/11/19 18:18:33;;;;;;;13.50;10.03;;;;;;;8.03;52.17;99301.25;10387686;28;20211;-74
2022/11/19 18:23:34;;;;;;;9.90;8.83;;;;;;;9.01;49.84;99335.94;10390069;28;20247;-71
2022/11/19 18:28:37;;;;;;;11.67;6.73;;;;;;;9.22;50.95;99309.34;10389698;28;20221;-68
2022/11/19 18:33:40;;;;;;;8.63;7.00;;;;;;;9.80;49.43;99287.13;10390320;28;20228;-68
2022/11/19 18:38:42;;;;;;;7.30;6.20;;;;;;;10.10;48.57;99311.91;10406869;28;20270;-68
2022/11/19 18:49:04;;;;;;;7.83;6.60;;;;;;;8.48;51.38;99326.16;10392189;28;20204;-69
2022/11/19 18:54:06;;;;;;;8.87;7.93;;;;;;;8.10;51.55;99317.38;10393251;28;20227;-71
2022/11/19 18:59:10;;;;;;;9.33;7.60;;;;;;;9.34;49.57;99351.56;10390455;28;20612;-70
2022/11/19 19:04:12;;;;;;;14.03;10.03;;;;;;;9.74;49.24;99325.31;10431483;28;20738;-67
2022/11/19 19:09:18;;;;;;;10.27;7.63;;;;;;;9.26;49.83;99352.50;10441646;28;20236;-68
2022/11/19 19:14:21;;;;;;;6.97;6.20;;;;;;;8.64;50.79;99364.34;10402975;28;20301;-68
2022/11/19 19:19:23;;;;;;;7.50;6.27;;;;;;;8.47;50.00;99369.00;10410002;28;20529;-68
2022/11/19 19:24:25;;;;;;;9.23;7.37;;;;;;;7.33;52.24;99303.03;10398080;28;20255;-69
2022/11/19 19:29:27;;;;;;;8.90;7.10;;;;;;;8.87;50.57;99323.47;10411649;28;20231;-70
2022/11/19 19:34:29;;;;;;;11.27;9.07;;;;;;;9.46;49.10;99320.69;10408996;28;20275;-68
2022/11/19 19:39:31;;;;;;;11.50;8.70;;;;;;;9.08;49.97;99347.56;10412598;28;20743;-69
2022/11/19 19:44:33;;;;;;;9.83;7.80;;;;;;;9.82;48.35;99335.88;10452412;28;20304;-70
2022/11/19 19:49:34;;;;;;;10.73;8.17;;;;;;;8.19;49.19;99382.09;10448982;28;21169;-75
2022/11/19 19:54:40;;;;;;;12.17;9.10;;;;;;;8.18;50.33;99362.56;10406303;28;20238;-70
2022/11/19 19:59:44;;;;;;;12.70;9.13;;;;;;;8.76;49.10;99391.41;10432734;28;20586;-68
2022/11/19 20:04:46;;;;;;;9.17;8.17;;;;;;;10.09;48.08;99353.03;10433655;28;20234;-71
2022/11/19 20:09:47;;;;;;;9.47;8.03;;;;;;;8.18;49.52;99381.22;10439064;28;20228;-68
2022/11/19 20:14:49;;;;;;;12.67;10.27;;;;;;;9.45;48.43;99406.34;10435844;28;20272;-70
2022/11/19 20:19:51;;;;;;;11.30;9.17;;;;;;;8.59;50.59;99388.06;10437686;28;20937;-71
2022/11/19 20:24:52;;;;;;;11.20;8.83;;;;;;;9.16;48.60;99405.34;10435716;28;20240;-69
2022/11/19 20:29:54;;;;;;;11.27;9.07;;;;;;;10.28;46.97;99372.94;10437249;28;20601;-70
2022/11/19 20:34:56;;;;;;;11.20;8.97;;;;;;;10.10;47.41;99408.13;10465340;28;20265;-72
2022/11/19 20:39:57;;;;;;;12.63;9.77;;;;;;;9.59;47.37;99432.22;10456891;28;20242;-72
2022/11/19 20:44:59;;;;;;;11.23;9.37;;;;;;;10.33;47.24;99396.44;10478751;28;20257;-68
2022/11/19 20:50:01;;;;;;;12.03;9.17;;;;;;;10.49;46.91;99388.13;10481910;28;20260;-69
2022/11/19 20:55:03;;;;;;;11.67;9.73;;;;;;;10.31;47.28;99417.22;10452372;28;20223;-72
2022/11/19 21:00:07;;;;;;;12.30;11.00;;;;;;;10.27;47.78;99408.72;10455726;28;20232;-74
2022/11/19 21:05:09;;;;;;;13.03;9.93;;;;;;;10.14;47.40;99429.97;10471656;28;20242;-70
2022/11/19 21:10:11;;;;;;;12.10;9.50;;;;;;;8.65;49.88;99420.16;10472591;28;20612;-70
2022/11/19 21:15:13;;;;;;;15.30;11.27;;;;;;;7.82;50.67;99375.66;10466804;28;20227;-72
2022/11/19 21:20:16;;;;;;;12.57;10.13;;;;;;;8.43;50.28;99421.84;10472468;28;20323;-68
2022/11/19 21:25:17;;;;;;;13.17;11.17;;;;;;;8.71;49.98;99431.97;10478532;28;20235;-72
2022/11/19 21:30:19;;;;;;;16.37;11.17;;;;;;;8.66;49.43;99421.03;10480712;28;20235;-68
2022/11/19 21:35:21;;;;;;;24.53;13.23;;;;;;;9.22;49.80;99386.75;10452590;28;20235;-69
2022/11/19 21:40:22;;;;;;;18.17;13.17;;;;;;;9.06;49.56;99431.50;10446524;28;20223;-70
2022/11/19 21:45:26;;;;;;;23.13;14.37;;;;;;;9.32;48.94;99405.16;10468670;28;20239;-69
2022/11/19 21:50:27;;;;;;;22.67;14.93;;;;;;;10.45;46.56;99378.84;10449455;28;20242;-70
2022/11/19 21:55:30;;;;;;;19.17;13.57;;;;;;;8.46;49.36;99418.03;10478429;28;20676;-67
2022/11/19 22:00:33;;;;;;;19.23;13.73;;;;;;;7.82;50.28;99386.31;10473566;28;20274;-68
2022/11/19 22:05:35;;;;;;;24.03;14.97;;;;;;;7.81;51.09;99372.13;10480105;28;20281;-69
2022/11/19 22:10:36;;;;;;;23.47;14.87;;;;;;;6.23;53.74;99295.72;10486654;28;20235;-69
2022/11/19 22:15:45;;;;;;;15.93;12.10;;;;;;;7.55;52.01;99348.50;10476717;28;20230;-69
2022/11/19 22:20:49;;;;;;;15.50;11.63;;;;;;;7.85;51.37;99354.03;10455502;28;20707;-68
2022/11/19 22:25:50;;;;;;;16.57;11.97;;;;;;;7.58;51.63;99340.16;10470876;28;20296;-73
2022/11/19 22:30:53;;;;;;;16.53;10.83;;;;;;;7.80;51.84;99327.88;10471595;28;20242;-70
2022/11/19 22:35:59;;;;;;;13.20;10.57;;;;;;;7.53;51.12;99334.53;10474956;28;20792;-69
2022/11/19 22:41:14;;;;;;;17.20;11.33;;;;;;;8.37;50.17;99339.09;10480602;28;20227;-70
2022/11/19 22:46:17;;;;;;;14.33;10.00;;;;;;;8.64;49.50;99327.00;10476827;28;20238;-72
2022/11/19 22:51:22;;;;;;;13.87;10.10;;;;;;;9.53;48.10;99324.28;10451231;28;20239;-72
2022/11/19 22:56:26;;;;;;;13.57;10.13;;;;;;;10.11;47.02;99320.75;10473297;28;20285;-72
2022/11/19 23:01:31;;;;;;;16.77;11.43;;;;;;;9.03;48.35;99398.81;10474122;28;20246;-71
2022/11/19 23:06:34;;;;;;;15.07;11.43;;;;;;;9.46;47.66;99408.00;10474149;28;20252;-69
2022/11/19 23:16:56;;;;;;;13.77;10.93;;;;;;;8.62;48.82;99401.03;10472587;28;20731;-70
2022/11/19 23:21:58;;;;;;;16.87;11.80;;;;;;;9.80;47.82;99386.00;10469414;28;20238;-70
2022/11/19 23:27:00;;;;;;;20.77;13.50;;;;;;;7.70;51.02;99346.75;10479163;28;20231;-70
2022/11/19 23:32:01;;;;;;;21.60;13.87;;;;;;;9.15;48.71;99407.19;10472685;28;20244;-69
2022/11/19 23:37:03;;;;;;;17.23;12.83;;;;;;;9.52;48.94;99381.38;10464772;28;20618;-70
2022/11/19 23:42:05;;;;;;;21.00;14.90;;;;;;;9.38;49.86;99352.84;10472330;28;20231;-70
2022/11/19 23:47:07;;;;;;;19.93;13.60;;;;;;;8.39;49.85;99369.09;10464721;28;20239;-68
2022/11/19 23:52:08;;;;;;;23.77;14.67;;;;;;;7.86;52.59;99329.84;10473928;28;20653;-68
2022/11/19 23:57:10;;;;;;;20.70;13.60;;;;;;;9.05;51.49;99297.22;10470725;28;20247;-70
